Time;durP1;ratioP1;P1;durP2;ratioP2;P2;SDS_P1;SDS_P2;PMS_P1;PMS_P2;Temp;Humidity;BMP_temperature;BMP_pressure;BME280_temperature;BME280_humidity;BME280_pressure;Samples;Min_cycle;Max_cycle;Signal;HPM_P1;HPM_P2
2024/01/26 00:00:05;;;;;;;13.40;3.20;;;;;;;4.06;72.45;100877.65;107628;1251;108335;-64
2024/01/26 00:02:59;;;;;;;8.50;2.40;;;;;;;4.05;72.98;100889.42;107591;1250;109158;-65
2024/01/26 00:05:27;;;;;;;7.90;2.00;;;;;;;3.99;73.29;100898.98;107541;1251;97841;-66
2024/01/26 00:07:56;;;;;;;4.70;2.00;;;;;;;3.92;74.00;100904.57;107561;1251;98366;-64
2024/01/26 00:10:24;;;;;;;6.30;2.40;;;;;;;3.83;74.35;100907.92;107622;1251;112116;-66
2024/01/26 00:12:53;;;;;;;3.50;1.60;;;;;;;3.77;74.82;100904.52;107561;1251;108347;-66
2024/01/26 00:15:22;;;;;;;6.60;2.10;;;;;;;3.68;75.18;100899.88;107622;1251;108176;-65
2024/01/26 00:17:50;;;;;;;5.20;2.40;;;;;;;3.64;75.60;100905.95;107553;1251;97810;-64
2024/01/26 00:20:19;;;;;;;4.40;1.90;;;;;;;3.60;75.05;100908.86;107570;1254;97897;-64
2024/01/26 00:22:53;;;;;;;5.70;2.50;;;;;;;3.58;75.53;100897.08;107548;1251;111487;-64
2024/01/26 00:25:23;;;;;;;4.00;1.90;;;;;;;3.55;75.22;100894.40;107622;1251;108684;-63
2024/01/26 00:27:51;;;;;;;5.00;2.50;;;;;;;3.56;75.19;100901.66;107584;1254;107652;-63
2024/01/26 00:30:19;;;;;;;6.60;2.20;;;;;;;3.54;75.51;100920.35;107585;1251;97809;-64
2024/01/26 00:32:47;;;;;;;5.70;2.10;;;;;;;3.52;75.95;100924.39;107617;1251;98520;-64
2024/01/26 00:35:16;;;;;;;2.80;1.60;;;;;;;3.48;75.51;100929.41;107554;1251;111864;-64
2024/01/26 00:37:45;;;;;;;4.50;2.30;;;;;;;3.43;75.62;100930.75;107571;1251;107233;-63
2024/01/26 00:40:13;;;;;;;2.50;1.60;;;;;;;3.39;75.37;100928.30;107599;1251;107834;-65
2024/01/26 00:42:42;;;;;;;4.70;1.70;;;;;;;3.32;75.46;100932.77;107550;1251;97758;-65
2024/01/26 00:45:10;;;;;;;2.70;1.60;;;;;;;3.26;75.33;100938.63;107594;1251;97988;-64
2024/01/26 00:47:38;;;;;;;5.90;1.70;;;;;;;3.22;75.42;100935.64;107652;1251;110797;-65
2024/01/26 00:50:07;;;;;;;2.10;1.30;;;;;;;3.22;75.30;100929.98;107563;1251;108359;-62
2024/01/26 00:52:36;;;;;;;4.20;1.90;;;;;;;3.25;75.16;100935.84;107611;1251;107684;-65
2024/01/26 00:55:05;;;;;;;1.70;1.30;;;;;;;3.23;74.89;100933.80;107628;1251;97832;-64
2024/01/26 00:57:33;;;;;;;1.30;1.00;;;;;;;3.24;74.58;100934.80;107619;1251;98357;-65
2024/01/26 01:00:07;;;;;;;1.20;1.10;;;;;;;3.22;73.78;100941.13;107581;1251;111464;-65
2024/01/26 01:02:35;;;;;;;1.60;1.00;;;;;;;3.18;73.43;100946.35;107623;1254;107897;-65
2024/01/26 01:05:06;;;;;;;2.60;1.20;;;;;;;3.14;73.40;100949.38;107602;1255;107624;-64
2024/01/26 01:07:35;;;;;;;1.80;1.20;;;;;;;3.12;73.19;100951.23;107677;1251;98517;-65
2024/01/26 01:10:05;;;;;;;1.70;1.20;;;;;;;3.10;72.37;100948.88;107529;1253;97728;-65
2024/01/26 01:12:33;;;;;;;3.50;1.70;;;;;;;3.04;71.64;100942.30;107638;1254;110718;-64
2024/01/26 01:15:03;;;;;;;2.40;1.10;;;;;;;2.98;71.71;100934.94;107607;1254;108444;-64
2024/01/26 01:17:32;;;;;;;1.40;1.10;;;;;;;2.95;71.78;100939.91;107633;1253;106909;-64
2024/01/26 01:20:04;;;;;;;2.10;1.20;;;;;;;2.93;71.69;100942.68;107631;1251;97848;-64
2024/01/26 01:22:33;;;;;;;2.20;1.10;;;;;;;2.92;71.43;100948.09;107680;1255;97726;-63
2024/01/26 01:25:01;;;;;;;2.20;1.30;;;;;;;2.85;71.05;100950.02;107646;1251;110455;-64
2024/01/26 01:27:31;;;;;;;1.30;1.10;;;;;;;2.80;70.85;100942.33;107623;1251;108786;-65
2024/01/26 01:30:00;;;;;;;1.60;1.20;;;;;;;2.75;70.63;100948.09;107584;1251;108554;-65
2024/01/26 01:32:29;;;;;;;2.20;1.30;;;;;;;2.70;70.60;100949.39;107540;1254;97720;-64
2024/01/26 01:34:58;;;;;;;1.80;1.40;;;;;;;2.70;70.78;100944.65;107650;1251;97873;-64
2024/01/26 01:37:26;;;;;;;4.80;1.60;;;;;;;2.70;70.89;100949.08;107626;1251;112178;-64
2024/01/26 01:39:55;;;;;;;1.40;1.10;;;;;;;2.69;70.97;100949.30;107629;1251;108541;-65
2024/01/26 01:42:24;;;;;;;1.80;1.20;;;;;;;2.69;71.09;100950.52;107598;1254;108450;-64
2024/01/26 01:44:52;;;;;;;1.50;1.10;;;;;;;2.69;71.29;100951.07;107596;1251;97818;-65
2024/01/26 01:47:21;;;;;;;1.70;1.40;;;;;;;2.69;71.44;100952.47;107604;1251;97732;-65
2024/01/26 01:49:50;;;;;;;3.00;1.30;;;;;;;2.66;71.56;100950.31;107614;1251;111876;-65
2024/01/26 01:52:20;;;;;;;2.80;1.40;;;;;;;2.63;71.89;100951.90;107595;1251;108428;-65
2024/01/26 01:54:49;;;;;;;2.30;1.40;;;;;;;2.59;71.95;100950.31;107572;1251;107719;-64
2024/01/26 01:57:20;;;;;;;2.90;1.60;;;;;;;2.60;71.95;100949.75;107591;1254;97927;-64
2024/01/26 01:59:49;;;;;;;3.80;2.00;;;;;;;2.61;72.13;100958.91;107674;1251;97806;-64
2024/01/26 02:02:19;;;;;;;2.20;1.30;;;;;;;2.60;72.12;100966.17;107601;1251;111351;-64
2024/01/26 02:04:47;;;;;;;6.10;1.90;;;;;;;2.59;72.30;100960.40;107629;1251;108527;-64
2024/01/26 02:07:16;;;;;;;2.10;1.30;;;;;;;2.59;72.38;100951.94;107580;1251;108632;-64
2024/01/26 02:09:44;;;;;;;3.80;1.30;;;;;;;2.59;72.57;100960.62;107587;1251;97834;-64
2024/01/26 02:12:13;;;;;;;3.60;1.50;;;;;;;2.57;72.47;100962.63;107580;1251;97710;-67
2024/01/26 02:14:42;;;;;;;2.20;1.50;;;;;;;2.59;72.66;100958.80;107575;1251;112004;-65
2024/01/26 02:17:11;;;;;;;1.60;1.40;;;;;;;2.60;72.47;100958.27;107599;1250;107772;-65
2024/01/26 02:19:39;;;;;;;2.70;1.70;;;;;;;2.55;72.17;100962.95;107566;1251;108757;-64
2024/01/26 02:22:08;;;;;;;2.40;1.60;;;;;;;2.47;72.22;100967.55;107557;1254;97838;-63
2024/01/26 02:24:36;;;;;;;2.00;1.40;;;;;;;2.43;71.85;100970.46;107592;1251;98353;-65
2024/01/26 02:27:05;;;;;;;4.70;2.20;;;;;;;2.40;71.88;100979.59;107599;1254;111982;-65
2024/01/26 02:29:33;;;;;;;3.40;1.60;;;;;;;2.38;71.79;100979.74;107601;1251;108337;-65
2024/01/26 02:32:01;;;;;;;3.80;1.50;;;;;;;2.36;71.62;100981.40;107541;1251;108616;-64
2024/01/26 02:34:30;;;;;;;4.60;1.40;;;;;;;2.34;71.56;100987.20;107565;1251;98728;-63
2024/01/26 02:36:58;;;;;;;4.00;1.60;;;;;;;2.32;71.43;100999.33;107649;1250;97944;-63
2024/01/26 02:39:28;;;;;;;3.00;1.70;;;;;;;2.29;71.32;101001.21;107641;1254;110585;-64
2024/01/26 02:41:57;;;;;;;3.00;1.40;;;;;;;2.27;71.24;100994.42;107600;1254;108029;-65
2024/01/26 02:44:25;;;;;;;2.90;1.60;;;;;;;2.29;71.31;100993.44;107534;1253;107262;-65
2024/01/26 02:46:54;;;;;;;2.80;1.60;;;;;;;2.29;70.88;100997.36;107597;1253;97864;-64
2024/01/26 02:49:22;;;;;;;2.60;1.90;;;;;;;2.24;71.10;101002.87;107553;1250;98358;-67
2024/01/26 02:51:51;;;;;;;2.60;1.80;;;;;;;2.20;71.31;100994.23;107594;1251;110485;-65
2024/01/26 02:54:19;;;;;;;3.10;1.40;;;;;;;2.19;71.13;101004.39;107577;1251;108079;-65
2024/01/26 02:56:51;;;;;;;4.60;1.90;;;;;;;2.17;71.56;100996.50;107620;1251;108254;-64
2024/01/26 02:59:20;;;;;;;2.60;2.00;;;;;;;2.15;71.68;100999.80;107580;1251;97854;-64
2024/01/26 03:01:49;;;;;;;2.80;1.60;;;;;;;2.11;72.22;101004.97;107615;1251;97798;-64
2024/01/26 03:04:19;;;;;;;3.10;1.80;;;;;;;2.07;72.08;101011.52;107601;1251;110897;-64
2024/01/26 03:06:48;;;;;;;4.60;1.80;;;;;;;2.06;72.24;101005.59;107575;1250;108589;-64
2024/01/26 03:09:17;;;;;;;2.70;1.90;;;;;;;2.07;72.02;101009.60;107579;1255;108437;-64
2024/01/26 03:11:45;;;;;;;3.10;1.60;;;;;;;2.05;72.29;101013.40;107565;1251;97830;-63
2024/01/26 03:14:15;;;;;;;2.60;1.80;;;;;;;2.01;72.02;101013.91;107646;1251;98341;-64
2024/01/26 03:16:44;;;;;;;2.60;1.60;;;;;;;2.00;71.89;101022.13;107586;1251;110790;-65
2024/01/26 03:19:12;;;;;;;5.50;2.50;;;;;;;1.98;71.85;101020.63;107606;1254;107955;-65
2024/01/26 03:21:44;;;;;;;3.00;1.60;;;;;;;1.97;71.79;101020.66;107544;1251;108323;-65
2024/01/26 03:24:14;;;;;;;2.70;2.00;;;;;;;1.98;71.33;101028.59;107582;1250;97953;-66
2024/01/26 03:26:43;;;;;;;3.30;2.00;;;;;;;1.99;70.95;101018.44;107601;1251;97716;-65
2024/01/26 03:29:12;;;;;;;4.80;2.50;;;;;;;2.03;70.90;101021.80;107592;1251;112284;-64
2024/01/26 03:31:40;;;;;;;4.90;2.30;;;;;;;2.05;70.38;101022.77;107584;1250;108434;-64
2024/01/26 03:34:09;;;;;;;3.10;1.90;;;;;;;2.06;69.64;101018.13;107608;1255;108342;-64
2024/01/26 03:36:38;;;;;;;6.00;2.80;;;;;;;2.05;68.69;101018.38;107590;1253;97819;-64
2024/01/26 03:39:09;;;;;;;4.20;1.80;;;;;;;2.04;68.59;101018.92;107589;1254;97910;-65
2024/01/26 03:41:40;;;;;;;4.00;1.90;;;;;;;2.06;67.82;101015.84;107627;1251;111422;-68
2024/01/26 03:44:11;;;;;;;3.10;1.30;;;;;;;2.08;67.29;101024.04;107646;1254;107023;-63
2024/01/26 03:46:44;;;;;;;3.50;1.90;;;;;;;2.11;67.31;101023.20;107604;1254;108199;-63
2024/01/26 03:49:12;;;;;;;3.70;1.90;;;;;;;2.12;66.90;101031.45;107621;1250;97847;-64
2024/01/26 03:51:40;;;;;;;4.40;1.60;;;;;;;2.12;66.78;101035.88;107623;1251;97703;-65
2024/01/26 03:54:09;;;;;;;1.70;1.50;;;;;;;2.09;66.85;101039.54;107587;1251;112263;-64
2024/01/26 03:56:37;;;;;;;3.60;1.40;;;;;;;2.08;66.75;101042.98;107642;1255;108479;-64
2024/01/26 03:59:06;;;;;;;2.10;1.80;;;;;;;2.08;66.61;101045.43;107603;1250;108275;-65
2024/01/26 04:01:34;;;;;;;1.90;1.50;;;;;;;2.09;66.29;101050.90;107601;1251;97816;-64
2024/01/26 04:04:03;;;;;;;1.80;1.50;;;;;;;2.09;66.48;101055.66;107623;1251;97924;-65
2024/01/26 04:06:42;;;;;;;1.90;1.50;;;;;;;2.11;66.41;101065.48;107662;1251;111546;-64
2024/01/26 04:09:11;;;;;;;2.70;1.60;;;;;;;2.11;65.99;101067.23;107715;1251;106889;-65
2024/01/26 04:11:39;;;;;;;3.10;1.50;;;;;;;2.10;66.14;101069.05;107635;1254;106798;-66
2024/01/26 04:14:08;;;;;;;5.50;1.70;;;;;;;2.08;66.20;101068.63;107591;1251;97825;-65
2024/01/26 04:16:36;;;;;;;6.20;2.10;;;;;;;2.06;66.24;101071.52;107595;1251;98505;-64
2024/01/26 04:19:04;;;;;;;3.40;2.10;;;;;;;2.08;66.61;101079.08;107654;1251;112033;-65
2024/01/26 04:21:33;;;;;;;4.30;2.10;;;;;;;2.07;66.22;101075.75;107630;1252;108481;-65
2024/01/26 04:24:02;;;;;;;4.10;1.90;;;;;;;2.07;66.48;101078.74;107625;1251;108147;-65
2024/01/26 04:26:30;;;;;;;3.10;1.80;;;;;;;2.08;66.54;101079.09;107609;1250;97822;-66
2024/01/26 04:28:58;;;;;;;3.60;1.80;;;;;;;2.07;66.56;101078.58;107594;1251;97813;-65
2024/01/26 04:31:26;;;;;;;4.40;1.80;;;;;;;2.08;66.50;101079.23;107602;1253;111335;-64
2024/01/26 04:33:55;;;;;;;4.60;1.30;;;;;;;2.09;66.67;101084.48;107589;1253;107866;-64
2024/01/26 04:36:24;;;;;;;5.20;1.60;;;;;;;2.10;66.57;101086.95;107626;1251;106600;-63
2024/01/26 04:38:52;;;;;;;2.00;1.50;;;;;;;2.08;66.56;101093.20;107593;1251;97857;-63
2024/01/26 04:41:20;;;;;;;4.90;2.10;;;;;;;2.11;66.57;101096.64;107640;1251;98100;-64
2024/01/26 04:43:49;;;;;;;2.60;1.70;;;;;;;2.12;66.66;101098.31;107661;1251;111938;-64
2024/01/26 04:46:17;;;;;;;4.60;2.50;;;;;;;2.14;67.02;101100.54;107633;1251;106982;-63
2024/01/26 04:48:45;;;;;;;3.40;2.60;;;;;;;2.12;66.69;101104.89;107611;1251;108173;-66
2024/01/26 04:51:14;;;;;;;2.70;1.60;;;;;;;2.12;66.58;101104.18;107568;1254;97836;-65
2024/01/26 04:53:42;;;;;;;9.50;4.90;;;;;;;2.13;66.39;101109.63;107655;1253;97717;-64
2024/01/26 04:56:14;;;;;;;3.10;2.20;;;;;;;2.14;66.39;101111.13;107610;1253;111959;-66
2024/01/26 04:58:42;;;;;;;3.00;2.20;;;;;;;2.17;66.18;101117.91;107660;1253;108240;-66
2024/01/26 05:01:10;;;;;;;2.00;1.20;;;;;;;2.15;65.72;101121.38;107575;1254;107534;-65
2024/01/26 05:03:39;;;;;;;2.00;1.60;;;;;;;2.14;65.57;101122.33;107583;1252;97819;-67
2024/01/26 05:06:07;;;;;;;3.20;1.80;;;;;;;2.14;65.59;101123.74;107590;1253;97832;-65
2024/01/26 05:08:35;;;;;;;3.10;1.70;;;;;;;2.13;65.56;101131.02;107589;1255;111862;-64
2024/01/26 05:11:05;;;;;;;5.80;2.00;;;;;;;2.16;65.73;101130.18;107583;1254;107074;-64
2024/01/26 05:13:33;;;;;;;4.70;2.30;;;;;;;2.18;65.54;101135.04;107571;1253;108215;-65
2024/01/26 05:16:02;;;;;;;4.80;2.00;;;;;;;2.21;65.31;101144.27;107604;1254;97832;-63
2024/01/26 05:18:30;;;;;;;3.90;1.30;;;;;;;2.23;64.91;101141.20;107596;1254;97828;-64
2024/01/26 05:20:58;;;;;;;3.40;1.30;;;;;;;2.24;65.08;101151.94;107581;1255;112862;-64
2024/01/26 05:23:27;;;;;;;3.30;1.50;;;;;;;2.24;64.70;101149.96;107576;1254;107575;-65
2024/01/26 05:25:56;;;;;;;6.40;1.70;;;;;;;2.24;64.74;101154.05;107560;1254;106751;-65
2024/01/26 05:28:24;;;;;;;8.10;2.10;;;;;;;2.26;64.55;101157.70;107658;1255;98084;-64
2024/01/26 05:30:53;;;;;;;4.60;2.10;;;;;;;2.25;64.42;101160.91;107657;1251;97827;-65
2024/01/26 05:33:22;;;;;;;3.10;2.10;;;;;;;2.24;64.64;101166.05;107598;1254;111845;-64
2024/01/26 05:35:52;;;;;;;3.20;1.70;;;;;;;2.24;64.78;101169.98;107688;1251;108930;-65
2024/01/26 05:38:20;;;;;;;5.30;2.40;;;;;;;2.24;64.75;101170.70;107610;1250;108092;-64
2024/01/26 05:40:48;;;;;;;8.50;2.30;;;;;;;2.22;64.59;101180.15;107649;1251;97822;-67
2024/01/26 05:43:17;;;;;;;2.80;1.70;;;;;;;2.20;64.63;101180.77;107616;1251;98459;-66
2024/01/26 05:45:45;;;;;;;3.30;1.70;;;;;;;2.18;64.70;101180.88;107635;1250;112051;-65
2024/01/26 05:48:14;;;;;;;2.30;1.80;;;;;;;2.17;64.62;101182.49;107626;1250;108361;-65
2024/01/26 05:50:45;;;;;;;7.40;1.90;;;;;;;2.16;64.60;101188.04;107597;1251;108565;-64
2024/01/26 05:53:13;;;;;;;3.20;1.90;;;;;;;2.14;64.81;101190.79;107567;1251;97823;-64
2024/01/26 05:55:42;;;;;;;4.10;1.60;;;;;;;2.14;64.95;101187.40;107641;1251;97713;-64
2024/01/26 05:58:10;;;;;;;4.50;1.80;;;;;;;2.15;64.96;101188.63;107591;1251;112124;-64
2024/01/26 06:00:39;;;;;;;2.30;1.70;;;;;;;2.18;64.92;101194.83;107591;1251;108647;-65
2024/01/26 06:03:07;;;;;;;4.30;1.90;;;;;;;2.19;64.71;101193.36;107569;1251;108701;-66
2024/01/26 06:05:36;;;;;;;4.10;2.20;;;;;;;2.24;65.09;101190.52;107602;1251;97850;-65
2024/01/26 06:08:05;;;;;;;4.80;2.40;;;;;;;2.26;64.98;101196.58;107585;1255;97860;-65
2024/01/26 06:10:33;;;;;;;2.80;1.90;;;;;;;2.27;65.00;101195.65;107681;1251;112277;-62
2024/01/26 06:13:01;;;;;;;2.00;1.60;;;;;;;2.25;64.36;101206.17;107647;1255;108938;-63
2024/01/26 06:15:29;;;;;;;1.70;1.30;;;;;;;2.24;64.60;101216.66;107625;1251;107156;-63
2024/01/26 06:17:58;;;;;;;4.40;2.00;;;;;;;2.23;64.35;101217.11;107642;1251;97941;-63
2024/01/26 06:20:31;;;;;;;3.80;2.00;;;;;;;2.20;64.75;101220.06;107593;1251;97825;-64
2024/01/26 06:23:00;;;;;;;5.90;1.90;;;;;;;2.18;64.89;101222.29;107614;1251;111584;-64
2024/01/26 06:25:28;;;;;;;4.90;2.30;;;;;;;2.17;65.00;101230.98;107653;1255;106750;-65
2024/01/26 06:27:58;;;;;;;7.10;2.90;;;;;;;2.16;65.28;101231.72;107628;1251;108620;-65
2024/01/26 06:30:27;;;;;;;3.60;2.10;;;;;;;2.16;65.19;101231.55;107614;1251;97963;-65
2024/01/26 06:32:55;;;;;;;3.50;2.10;;;;;;;2.13;65.36;101238.59;107588;1251;97830;-64
2024/01/26 06:35:24;;;;;;;2.50;1.90;;;;;;;2.12;65.54;101238.45;107594;1251;112273;-64
2024/01/26 06:37:52;;;;;;;4.80;1.40;;;;;;;2.11;65.44;101247.39;107599;1251;108234;-64
2024/01/26 06:40:20;;;;;;;3.40;1.80;;;;;;;2.08;65.36;101247.85;107522;1251;108088;-64
2024/01/26 06:42:49;;;;;;;2.10;1.20;;;;;;;2.08;65.40;101254.94;107577;1256;97802;-64
2024/01/26 06:45:17;;;;;;;3.80;2.00;;;;;;;2.08;65.23;101255.45;107537;1251;97822;-64
2024/01/26 06:47:45;;;;;;;3.90;2.80;;;;;;;2.09;65.33;101251.01;107609;1250;112179;-64
2024/01/26 06:50:14;;;;;;;11.00;3.90;;;;;;;2.09;65.44;101252.77;107594;1251;108460;-64
2024/01/26 06:52:42;;;;;;;7.90;3.30;;;;;;;2.12;65.48;101251.55;107548;1254;107012;-65
2024/01/26 06:55:10;;;;;;;8.70;3.00;;;;;;;2.11;65.22;101251.61;107552;1251;97857;-65
2024/01/26 06:57:39;;;;;;;9.90;3.30;;;;;;;2.11;65.44;101254.99;107611;1251;97745;-62
2024/01/26 07:00:09;;;;;;;4.50;2.40;;;;;;;2.10;65.21;101261.94;107553;1251;111293;-63
2024/01/26 07:02:37;;;;;;;6.00;3.10;;;;;;;2.08;65.36;101264.65;107642;1250;108720;-63
2024/01/26 07:05:06;;;;;;;6.50;3.30;;;;;;;2.07;65.47;101264.52;107613;1251;107024;-64
2024/01/26 07:07:35;;;;;;;5.60;2.50;;;;;;;2.05;65.83;101266.56;107601;1251;97736;-63
2024/01/26 07:10:03;;;;;;;5.30;2.10;;;;;;;2.04;65.90;101268.02;107565;1251;98456;-64
2024/01/26 07:12:31;;;;;;;4.70;2.40;;;;;;;2.05;65.75;101266.41;107641;1251;111360;-66
2024/01/26 07:15:00;;;;;;;4.70;3.10;;;;;;;2.05;65.99;101268.14;107577;1251;108979;-64
2024/01/26 07:17:29;;;;;;;3.50;2.00;;;;;;;2.08;66.04;101270.68;107649;1251;108441;-64
2024/01/26 07:19:57;;;;;;;2.40;1.60;;;;;;;2.10;66.09;101275.92;107603;1251;97856;-64
2024/01/26 07:22:26;;;;;;;2.20;1.70;;;;;;;2.11;65.97;101276.73;107659;1251;98462;-63
2024/01/26 07:24:54;;;;;;;3.00;1.50;;;;;;;2.11;66.13;101278.66;107603;1252;110654;-64
2024/01/26 07:27:22;;;;;;;2.90;1.60;;;;;;;2.12;66.23;101283.44;107633;1256;108346;-64
2024/01/26 07:29:52;;;;;;;4.80;3.50;;;;;;;2.12;66.55;101288.02;107530;1254;108781;-62
2024/01/26 07:32:20;;;;;;;4.10;1.90;;;;;;;2.10;66.58;101285.09;107593;1251;97915;-64
2024/01/26 07:34:49;;;;;;;10.00;2.00;;;;;;;2.10;66.78;101291.31;107537;1254;98410;-64
2024/01/26 07:37:17;;;;;;;3.70;1.80;;;;;;;2.09;66.87;101291.34;107617;1256;111021;-64
2024/01/26 07:39:45;;;;;;;3.20;2.20;;;;;;;2.08;67.12;101293.52;107608;1255;108176;-64
2024/01/26 07:42:14;;;;;;;2.60;1.50;;;;;;;2.08;67.15;101296.15;107612;1256;108386;-64
2024/01/26 07:44:42;;;;;;;5.50;2.10;;;;;;;2.08;67.49;101296.52;107565;1254;97944;-63
2024/01/26 07:47:11;;;;;;;4.40;2.50;;;;;;;2.08;67.57;101301.82;107611;1254;97851;-64
2024/01/26 07:49:39;;;;;;;4.40;2.00;;;;;;;2.08;67.45;101301.64;107537;1251;114267;-64
2024/01/26 07:52:08;;;;;;;6.80;3.90;;;;;;;2.08;67.84;101297.23;107592;1251;108674;-64
2024/01/26 07:54:36;;;;;;;3.50;1.80;;;;;;;2.13;68.03;101295.39;107542;1253;108260;-63
2024/01/26 07:57:05;;;;;;;2.20;1.90;;;;;;;2.19;67.42;101296.55;107571;1256;97838;-64
2024/01/26 07:59:33;;;;;;;3.00;1.50;;;;;;;2.22;66.78;101302.25;107640;1254;97739;-64
2024/01/26 08:02:02;;;;;;;1.70;1.30;;;;;;;2.25;66.73;101299.64;107542;1256;112077;-62
2024/01/26 08:04:30;;;;;;;2.10;1.20;;;;;;;2.28;66.57;101291.54;107588;1254;108428;-63
2024/01/26 08:06:58;;;;;;;1.50;1.40;;;;;;;2.35;66.70;101288.23;107566;1257;108431;-64
2024/01/26 08:09:27;;;;;;;2.40;1.80;;;;;;;2.39;66.86;101291.06;107529;1254;97847;-64
2024/01/26 08:11:56;;;;;;;2.40;1.40;;;;;;;2.38;67.10;101302.80;107578;1254;97726;-64
2024/01/26 08:14:25;;;;;;;2.20;1.60;;;;;;;2.33;67.20;101298.02;107590;1254;111432;-63
2024/01/26 08:16:53;;;;;;;2.10;1.50;;;;;;;2.33;67.58;101299.43;107614;1251;106937;-63
2024/01/26 08:19:22;;;;;;;7.10;1.70;;;;;;;2.35;67.86;101305.04;107580;1256;108353;-64
2024/01/26 08:21:54;;;;;;;4.60;1.90;;;;;;;2.37;67.71;101309.19;107603;1256;97851;-65
2024/01/26 08:24:22;;;;;;;2.50;1.90;;;;;;;2.39;67.62;101314.23;107690;1253;97870;-63
2024/01/26 08:26:51;;;;;;;5.70;1.70;;;;;;;2.41;67.49;101318.59;107583;1254;110729;-65
2024/01/26 08:29:21;;;;;;;3.60;2.00;;;;;;;2.42;67.54;101321.90;107591;1254;107920;-63
2024/01/26 08:31:50;;;;;;;9.70;2.50;;;;;;;2.40;67.59;101319.52;107507;1253;108392;-64
2024/01/26 08:34:19;;;;;;;4.90;1.50;;;;;;;2.36;67.56;101329.06;107572;1255;97949;-63
2024/01/26 08:36:48;;;;;;;3.80;2.10;;;;;;;2.30;68.04;101327.58;107640;1251;97891;-64
2024/01/26 08:39:16;;;;;;;2.90;1.90;;;;;;;2.25;68.34;101328.00;107625;1251;111262;-62
2024/01/26 08:41:46;;;;;;;8.10;2.00;;;;;;;2.22;68.63;101335.71;107634;1251;107923;-64
2024/01/26 08:44:15;;;;;;;6.20;2.70;;;;;;;2.22;68.86;101331.48;107597;1251;107880;-64
2024/01/26 08:46:44;;;;;;;5.40;3.00;;;;;;;2.22;68.79;101337.81;106931;1256;863932;-64
2024/01/26 08:49:12;;;;;;;5.10;3.00;;;;;;;2.22;68.99;101334.31;107542;1251;97959;-65
2024/01/26 08:51:41;;;;;;;3.50;2.20;;;;;;;2.22;69.09;101337.82;107612;1254;110603;-65
2024/01/26 08:54:10;;;;;;;4.80;3.00;;;;;;;2.23;69.13;101340.98;107483;1258;107864;-64
2024/01/26 08:56:42;;;;;;;5.30;2.70;;;;;;;2.23;68.93;101344.52;107603;1254;107774;-63
2024/01/26 08:59:10;;;;;;;3.40;2.00;;;;;;;2.24;68.97;101343.41;107578;1256;98024;-63
2024/01/26 09:01:38;;;;;;;2.40;2.00;;;;;;;2.27;68.74;101342.75;107586;1256;97848;-63
2024/01/26 09:04:08;;;;;;;7.90;3.00;;;;;;;2.32;68.77;101349.95;107617;1256;111863;-63
2024/01/26 09:06:37;;;;;;;4.60;2.00;;;;;;;2.35;68.25;101349.64;107585;1250;108413;-62
2024/01/26 09:09:06;;;;;;;3.70;2.20;;;;;;;2.37;67.88;101338.92;107615;1256;106663;-64
2024/01/26 09:11:35;;;;;;;4.30;2.40;;;;;;;2.40;67.56;101345.70;107603;1257;97932;-63
2024/01/26 09:14:04;;;;;;;4.10;2.30;;;;;;;2.40;67.39;101359.16;107631;1256;97844;-64
2024/01/26 09:16:32;;;;;;;3.10;2.10;;;;;;;2.40;67.30;101357.55;107575;1256;111725;-63
2024/01/26 09:19:01;;;;;;;6.90;2.60;;;;;;;2.41;67.24;101346.41;107621;1251;108940;-64
2024/01/26 09:21:31;;;;;;;5.70;2.60;;;;;;;2.40;67.03;101353.31;107598;1251;108497;-64
2024/01/26 09:23:59;;;;;;;6.20;3.20;;;;;;;2.41;67.03;101351.00;107570;1257;97825;-64
2024/01/26 09:26:28;;;;;;;3.90;2.70;;;;;;;2.42;67.10;101356.41;107638;1251;97902;-64
2024/01/26 09:28:56;;;;;;;5.10;2.50;;;;;;;2.44;66.91;101354.73;107612;1250;111523;-63
2024/01/26 09:31:25;;;;;;;4.20;2.60;;;;;;;2.46;66.86;101342.40;107591;1253;108222;-64
2024/01/26 09:33:53;;;;;;;4.10;2.90;;;;;;;2.52;66.70;101347.46;107633;1255;108223;-62
2024/01/26 09:36:22;;;;;;;5.10;2.50;;;;;;;2.54;66.07;101342.25;107553;1251;98405;-65
2024/01/26 09:38:51;;;;;;;3.10;2.40;;;;;;;2.56;65.90;101348.88;107606;1257;98453;-63
2024/01/26 09:41:19;;;;;;;5.70;3.10;;;;;;;2.57;65.91;101341.95;107561;1251;111732;-63
2024/01/26 09:43:48;;;;;;;5.00;2.30;;;;;;;2.61;66.33;101341.94;107613;1251;107393;-63
2024/01/26 09:46:17;;;;;;;4.60;1.90;;;;;;;2.62;65.86;101338.00;107530;1251;107334;-64
2024/01/26 09:48:49;;;;;;;3.00;2.00;;;;;;;2.65;65.92;101337.13;107617;1256;97866;-64
2024/01/26 09:51:17;;;;;;;2.00;1.50;;;;;;;2.65;65.59;101334.45;107630;1256;97844;-65
2024/01/26 09:53:49;;;;;;;5.80;2.70;;;;;;;2.68;65.72;101344.30;107614;1251;110526;-62
2024/01/26 09:56:19;;;;;;;3.60;2.50;;;;;;;2.67;65.74;101337.59;107598;1251;108420;-65
2024/01/26 09:58:47;;;;;;;3.90;2.50;;;;;;;2.72;65.99;101333.45;107524;1257;108285;-65
2024/01/26 10:01:21;;;;;;;4.00;2.20;;;;;;;2.75;65.92;101333.48;107584;1251;97950;-65
2024/01/26 10:03:53;;;;;;;3.80;2.90;;;;;;;2.79;65.91;101337.02;107722;1256;97711;-63
2024/01/26 10:06:22;;;;;;;3.90;2.80;;;;;;;2.79;65.58;101330.99;107612;1256;111736;-63
2024/01/26 10:08:50;;;;;;;5.70;3.10;;;;;;;2.79;65.57;101331.16;107636;1257;107202;-63
2024/01/26 10:11:19;;;;;;;4.90;2.60;;;;;;;2.83;65.63;101329.41;107572;1251;106697;-66
2024/01/26 10:13:47;;;;;;;5.00;3.10;;;;;;;2.86;65.62;101318.98;107559;1257;97898;-63
2024/01/26 10:16:15;;;;;;;3.40;2.30;;;;;;;2.87;65.37;101322.13;107576;1251;97704;-63
2024/01/26 10:18:46;;;;;;;6.00;2.60;;;;;;;2.89;65.55;101321.33;107623;1251;110558;-64
2024/01/26 10:21:16;;;;;;;4.80;2.90;;;;;;;2.89;65.47;101321.14;107592;1251;109375;-64
2024/01/26 10:23:46;;;;;;;3.20;2.20;;;;;;;2.90;65.56;101320.58;107601;1256;108622;-64
2024/01/26 10:26:15;;;;;;;4.00;2.00;;;;;;;2.93;65.26;101319.90;107553;1254;97843;-64
2024/01/26 10:28:45;;;;;;;5.70;2.80;;;;;;;2.97;65.08;101323.23;107586;1251;98356;-64
2024/01/26 10:31:13;;;;;;;3.80;2.20;;;;;;;2.98;65.13;101322.84;107582;1254;110680;-64
2024/01/26 10:33:45;;;;;;;2.60;2.20;;;;;;;2.96;64.89;101322.36;107598;1254;108771;-64
2024/01/26 10:36:15;;;;;;;5.50;2.30;;;;;;;2.97;64.83;101316.35;107569;1251;107820;-64
2024/01/26 10:38:46;;;;;;;3.00;2.20;;;;;;;2.99;64.80;101317.16;107564;1251;97821;-63
2024/01/26 10:41:20;;;;;;;4.50;2.60;;;;;;;3.01;64.75;101317.91;107519;1254;98701;-64
2024/01/26 10:43:53;;;;;;;3.30;2.10;;;;;;;2.96;64.22;101327.52;107582;1250;111682;-63
2024/01/26 10:46:24;;;;;;;3.30;2.10;;;;;;;2.93;64.18;101326.80;107510;1254;108304;-64
2024/01/26 10:48:55;;;;;;;4.90;2.80;;;;;;;2.91;64.45;101327.58;107502;1251;108334;-65
2024/01/26 10:51:24;;;;;;;4.70;2.40;;;;;;;2.89;64.71;101329.48;107623;1251;97835;-64
2024/01/26 10:53:55;;;;;;;4.80;2.60;;;;;;;2.87;64.66;101329.19;107527;1251;97737;-64
2024/01/26 10:56:24;;;;;;;7.70;2.70;;;;;;;2.85;64.90;101327.55;107507;1251;113212;-64
2024/01/26 10:58:52;;;;;;;3.50;2.00;;;;;;;2.82;64.79;101325.19;107526;1254;108642;-64
2024/01/26 11:01:22;;;;;;;3.80;2.00;;;;;;;2.84;64.82;101327.41;107480;1251;108477;-63
2024/01/26 11:03:52;;;;;;;3.70;2.00;;;;;;;2.84;65.03;101337.31;107518;1251;97815;-63
2024/01/26 11:06:20;;;;;;;11.50;3.60;;;;;;;2.86;65.09;101337.92;107536;1251;97719;-65
2024/01/26 11:08:50;;;;;;;8.00;2.40;;;;;;;2.88;65.15;101336.80;107482;1251;111718;-64
2024/01/26 11:11:33;;;;;;;5.70;3.70;;;;;;;2.91;65.30;101340.56;107539;1251;107011;-65
2024/01/26 11:14:02;;;;;;;3.30;2.20;;;;;;;2.93;65.49;101342.92;107636;1251;107371;-65
2024/01/26 11:16:35;;;;;;;9.10;2.80;;;;;;;2.90;65.26;101340.23;107585;1251;97800;-63
2024/01/26 11:19:04;;;;;;;4.50;2.80;;;;;;;2.85;65.71;101335.17;107616;1256;97953;-65
2024/01/26 11:21:44;;;;;;;5.60;3.10;;;;;;;2.82;65.79;101344.31;107509;1251;112125;-64
2024/01/26 11:24:17;;;;;;;5.00;3.10;;;;;;;2.79;66.05;101342.16;107600;1251;108471;-64
2024/01/26 11:26:59;;;;;;;8.20;3.80;;;;;;;2.77;66.33;101339.92;107509;1251;107166;-63